Terminal Aerodrome Forecast
Issued by NWS Cleveland, OH

Home | Current Version | Previous Version | Text Only | Print | Product List | Glossary On
Versions: 1 2 3 4 5 6 7 8 9 10 11 12 13 14 15 16 17 18 19 20 21
000
FTUS41 KCLE 102011 AAA
TAFERI
TAF AMD
KERI 102011Z 1020/1118 22015KT P6SM VCSH SCT020 OVC040
      TEMPO 1022/1101 5SM -SHSN BR OVC020
     FM110100 23015G25KT 3SM -SN BR OVC015
      TEMPO 1101/1103 1SM -SN BR SCT009 OVC015
     FM110300 25015G25KT 1SM -SHSN OVC015
     FM110700 30011KT 4SM -SHSN OVC015
     FM111100 31006KT P6SM VCSH OVC015
     FM111500 27006KT P6SM OVC025
     FM111700 24006KT P6SM OVC030=

USA.gov is the U.S. government's official web portal to all federal, state and local government web resources and services.